Time;durP1;ratioP1;P1;durP2;ratioP2;P2;SDS_P1;SDS_P2;PMS_P1;PMS_P2;Temp;Humidity;BMP_temperature;BMP_pressure;BME280_temperature;BME280_humidity;BME280_pressure;Samples;Min_cycle;Max_cycle;Signal;HPM_P1;HPM_P2
2020/12/17 00:01:32;;;;;;;2.15;0.98;;;16.20;99.90;;;;;;4349581;33;20169;-79
2020/12/17 00:04:00;;;;;;;5.12;1.58;;;16.20;99.90;;;;;;4347849;33;20477;-78
2020/12/17 00:06:38;;;;;;;3.53;1.25;;;16.20;99.90;;;;;;4349857;33;20127;-78
2020/12/17 00:09:06;;;;;;;4.15;1.00;;;16.10;99.90;;;;;;4353137;33;20442;-78
2020/12/17 00:11:34;;;;;;;5.28;0.90;;;;;;;;;;4352009;33;20541;-80
2020/12/17 00:14:02;;;;;;;2.67;0.93;;;16.10;99.90;;;;;;4351294;33;20506;-78
2020/12/17 00:16:30;;;;;;;5.30;1.30;;;;;;;;;;4347970;33;20078;-78
2020/12/17 00:18:58;;;;;;;19.25;1.65;;;16.00;99.90;;;;;;4354113;33;20094;-79
2020/12/17 00:21:26;;;;;;;6.57;1.52;;;;;;;;;;4342198;33;20056;-78
2020/12/17 00:23:56;;;;;;;1.42;0.82;;;;;;;;;;4346193;33;20055;-78
2020/12/17 00:26:26;;;;;;;3.45;1.40;;;15.90;99.90;;;;;;4350185;33;20047;-78
2020/12/17 00:28:55;;;;;;;7.37;1.58;;;;;;;;;;4346313;32;20063;-79
2020/12/17 00:31:23;;;;;;;4.37;1.55;;;;;;;;;;4349068;32;20153;-79
2020/12/17 00:33:51;;;;;;;1.77;1.00;;;16.00;99.90;;;;;;4347893;32;20441;-78
2020/12/17 00:36:23;;;;;;;7.75;1.20;;;16.10;99.90;;;;;;4350124;32;20118;-79
2020/12/17 00:38:51;;;;;;;9.65;1.27;;;16.00;99.90;;;;;;4355005;32;20072;-79
2020/12/17 00:41:20;;;;;;;7.80;1.62;;;16.00;99.90;;;;;;4345293;32;20117;-79
2020/12/17 00:43:48;;;;;;;1.35;0.70;;;16.00;99.90;;;;;;4338073;32;20113;-79
2020/12/17 00:46:16;;;;;;;3.53;1.00;;;16.10;99.90;;;;;;4341531;32;20141;-80
2020/12/17 00:48:50;;;;;;;2.17;0.85;;;16.10;99.90;;;;;;4341300;32;20172;-80
2020/12/17 00:51:19;;;;;;;5.00;1.08;;;16.10;99.90;;;;;;4328974;32;20200;-80
2020/12/17 00:53:46;;;;;;;5.47;1.20;;;16.00;99.90;;;;;;4352417;32;20473;-80
2020/12/17 00:56:15;;;;;;;6.72;2.45;;;15.90;99.90;;;;;;4350632;32;20057;-80
2020/12/17 00:58:42;;;;;;;5.60;0.90;;;15.70;99.90;;;;;;4350910;32;20075;-80
2020/12/17 01:01:10;;;;;;;4.25;1.10;;;15.70;99.90;;;;;;4348050;32;20095;-80
2020/12/17 01:03:38;;;;;;;5.20;1.35;;;15.80;99.90;;;;;;4346468;32;20490;-80
2020/12/17 01:06:09;;;;;;;1.37;1.05;;;15.90;99.90;;;;;;4353893;32;20091;-79
2020/12/17 01:08:38;;;;;;;8.40;1.95;;;15.90;99.90;;;;;;4344315;32;20125;-81
2020/12/17 01:11:06;;;;;;;12.13;2.00;;;;;;;;;;4349675;32;20390;-80
2020/12/17 01:13:34;;;;;;;3.97;2.30;;;;;;;;;;4352342;32;20444;-80
2020/12/17 01:16:02;;;;;;;12.48;2.25;;;;;;;;;;4353820;32;20070;-80
2020/12/17 01:18:31;;;;;;;5.40;1.52;;;;;;;;;;4345693;32;20122;-80
2020/12/17 01:20:59;;;;;;;4.20;1.60;;;;;;;;;;4349095;32;20047;-80
2020/12/17 01:23:27;;;;;;;7.12;2.10;;;;;;;;;;4342528;32;20387;-79
2020/12/17 01:25:55;;;;;;;5.37;2.50;;;;;;;;;;4353053;32;20082;-80
2020/12/17 01:28:23;;;;;;;1.10;0.93;;;;;;;;;;4346861;32;20107;-80
2020/12/17 01:30:52;;;;;;;4.68;1.20;;;;;;;;;;4352798;32;20068;-81
2020/12/17 01:33:21;;;;;;;2.92;1.10;;;;;;;;;;4353907;32;20115;-82
2020/12/17 01:35:49;;;;;;;1.90;1.25;;;;;;;;;;4351669;32;20099;-80
2020/12/17 01:38:17;;;;;;;19.83;18.52;;;;;;;;;;4349278;32;20104;-81
2020/12/17 01:40:46;;;;;;;12.60;10.65;;;;;;;;;;4345894;32;20058;-81
2020/12/17 01:43:14;;;;;;;10.77;7.57;;;;;;;;;;4352087;32;20199;-80
2020/12/17 01:45:43;;;;;;;8.38;7.70;;;;;;;;;;4348176;32;20069;-80
2020/12/17 01:48:15;;;;;;;1.98;0.73;;;;;;;;;;4350119;32;20048;-80
2020/12/17 01:50:47;;;;;;;4.55;1.30;;;;;;;;;;4334972;32;20584;-81
2020/12/17 01:53:15;;;;;;;4.90;0.80;;;;;;;;;;4339996;32;20413;-80
2020/12/17 01:55:44;;;;;;;2.95;1.30;;;;;;;;;;4354937;32;20113;-80
2020/12/17 01:58:14;;;;;;;5.18;1.62;;;;;;;;;;4351487;32;20179;-81
2020/12/17 02:00:45;;;;;;;4.45;0.90;;;;;;;;;;4348836;32;20059;-80
2020/12/17 02:03:14;;;;;;;14.48;1.42;;;;;;;;;;4351886;32;20145;-80
2020/12/17 02:05:43;;;;;;;13.15;1.60;;;;;;;;;;4352594;32;20066;-80
2020/12/17 02:08:12;;;;;;;8.20;1.55;;;;;;;;;;4350545;32;20068;-80
2020/12/17 02:10:41;;;;;;;2.20;1.12;;;;;;;;;;4346401;32;20101;-80
2020/12/17 02:13:09;;;;;;;6.97;6.35;;;;;;;;;;4346480;33;20061;-79
2020/12/17 02:15:38;;;;;;;15.90;7.40;;;;;;;;;;4352819;32;20052;-79
2020/12/17 02:18:09;;;;;;;11.35;6.70;;;;;;;;;;4347812;32;20071;-81
2020/12/17 02:20:37;;;;;;;10.55;7.10;;;;;;;;;;4347367;32;20524;-79
2020/12/17 02:23:07;;;;;;;13.27;6.18;;;;;;;;;;4348440;33;20043;-79
2020/12/17 02:25:35;;;;;;;6.05;5.60;;;;;;;;;;4352363;32;20367;-79
2020/12/17 02:28:04;;;;;;;7.22;6.72;;;;;;;;;;4350243;32;20095;-80
2020/12/17 02:30:32;;;;;;;10.45;5.80;;;;;;;;;;4352472;33;20106;-79
2020/12/17 02:33:00;;;;;;;35.63;5.70;;;;;;;;;;4351589;32;20450;-80
2020/12/17 02:35:28;;;;;;;11.70;7.68;;;;;;;;;;4348408;32;20410;-79
2020/12/17 02:37:57;;;;;;;7.07;6.68;;;;;;;;;;4349288;32;20445;-79
2020/12/17 02:40:25;;;;;;;8.68;7.97;;;;;;;;;;4349823;32;20044;-79
2020/12/17 02:42:53;;;;;;;6.43;5.10;;;;;;;;;;4348267;32;20100;-79
2020/12/17 02:45:21;;;;;;;12.88;4.95;;;;;;;;;;4350087;32;20044;-79
2020/12/17 02:47:50;;;;;;;10.02;9.23;;;;;;;;;;4349495;33;20134;-80
2020/12/17 02:50:19;;;;;;;10.73;4.65;;;;;;;;;;4345214;32;20106;-81
2020/12/17 02:52:47;;;;;;;8.80;7.00;;;;;;;;;;4351436;32;20347;-81
2020/12/17 02:55:16;;;;;;;10.77;4.87;;;;;;;;;;4346171;33;20044;-79
2020/12/17 02:57:46;;;;;;;2.22;2.10;;;;;;;;;;4353004;32;20090;-80
2020/12/17 03:00:14;;;;;;;3.05;2.28;;;;;;;;;;4346337;32;20493;-81
2020/12/17 03:02:42;;;;;;;5.65;2.20;;;;;;;;;;4352370;32;20078;-80
2020/12/17 03:05:10;;;;;;;10.38;2.30;;;;;;;;;;4350994;32;20056;-80
2020/12/17 03:07:39;;;;;;;6.12;3.78;;;;;;;;;;4346884;32;20263;-79
2020/12/17 03:10:13;;;;;;;2.83;2.62;;;;;;;;;;4343685;32;20111;-80
2020/12/17 03:12:45;;;;;;;10.05;4.05;;;;;;;;;;4315082;33;20123;-90
2020/12/17 03:15:14;;;;;;;7.03;3.45;;;;;;;;;;4292532;33;20087;-93
2020/12/17 03:17:43;;;;;;;10.73;4.78;;;;;;;;;;4308632;33;20096;-94
2020/12/17 03:20:14;;;;;;;7.45;6.95;;;;;;;;;;4307265;33;20104;-92
2020/12/17 03:22:43;;;;;;;5.37;4.97;;;;;;;;;;4305289;33;20071;-93
2020/12/17 03:25:11;;;;;;;4.93;4.72;;;;;;;;;;4308034;33;20130;-92
2020/12/17 03:27:47;;;;;;;4.20;4.10;;;;;;;;;;4319401;33;20056;-92
2020/12/17 03:30:17;;;;;;;7.12;5.32;;;;;;;;;;4322758;33;20076;-93
2020/12/17 03:32:47;;;;;;;5.47;4.97;;;;;;;;;;4324137;33;20064;-93
2020/12/17 03:35:18;;;;;;;10.93;5.40;;;;;;;;;;4307239;33;20060;-92
2020/12/17 03:37:48;;;;;;;10.90;5.82;;;;;;;;;;4309765;33;20087;-91
2020/12/17 03:40:17;;;;;;;3.92;3.50;;;;;;;;;;4301465;33;20095;-94
2020/12/17 03:42:51;;;;;;;2.50;2.30;;;;;;;;;;4321133;33;20099;-93
2020/12/17 03:45:24;;;;;;;1.77;0.52;;;;;;;;;;4305266;33;20472;-91
2020/12/17 03:47:53;;;;;;;3.97;1.20;;;;;;;;;;4309084;33;20142;-91
2020/12/17 03:50:21;;;;;;;3.95;1.15;;;;;;;;;;4308933;33;20096;-94
2020/12/17 03:52:52;;;;;;;3.10;1.25;;;;;;;;;;4295357;33;20100;-91
2020/12/17 03:55:22;;;;;;;6.35;1.70;;;;;;;;;;4301495;33;20116;-92
2020/12/17 03:57:51;;;;;;;2.28;0.80;;;;;;;;;;4309424;33;20100;-93
2020/12/17 04:00:20;;;;;;;6.12;1.17;;;;;;;;;;4298671;33;20140;-92
2020/12/17 04:02:51;;;;;;;1.92;0.93;;;;;;;;;;4310542;33;20096;-92
2020/12/17 04:05:22;;;;;;;1.08;0.75;;;;;;;;;;4326006;33;20150;-92
2020/12/17 04:07:51;;;;;;;4.78;1.10;;;;;;;;;;4320903;33;20072;-92
2020/12/17 04:10:19;;;;;;;4.85;1.02;;;;;;;;;;4319319;33;20124;-92
2020/12/17 04:12:55;;;;;;;1.05;0.98;;;;;;;;;;4326798;33;20065;-93
2020/12/17 04:15:24;;;;;;;0.95;0.77;;;;;;;;;;4323120;33;20166;-92
2020/12/17 04:17:54;;;;;;;5.72;1.33;;;;;;;;;;4313740;33;20492;-95
2020/12/17 04:20:23;;;;;;;1.98;1.05;;;;;;;;;;4298619;33;20115;-94
2020/12/17 04:22:51;;;;;;;4.60;1.92;;;;;;;;;;4313029;33;20146;-94
2020/12/17 04:25:32;;;;;;;1.85;1.12;;;;;;;;;;4325677;33;20052;-91
2020/12/17 04:28:04;;;;;;;3.42;0.82;;;;;;;;;;4343686;33;20285;-91
2020/12/17 04:30:34;;;;;;;8.90;1.45;;;;;;;;;;4313056;33;20064;-92
2020/12/17 04:33:05;;;;;;;3.83;0.95;;;;;;;;;;4318398;33;20096;-92
2020/12/17 04:35:34;;;;;;;8.10;1.00;;;;;;;;;;4334997;33;20171;-92
2020/12/17 04:38:03;;;;;;;3.83;0.88;;;;;;;;;;4325484;33;20443;-93
2020/12/17 04:40:31;;;;;;;3.22;1.42;;;;;;;;;;4327433;33;20778;-94
2020/12/17 04:43:02;;;;;;;10.35;0.85;;;;;;;;;;4321654;33;20091;-92
2020/12/17 04:45:31;;;;;;;3.65;1.10;;;;;;;;;;4326545;33;20083;-95
2020/12/17 04:48:05;;;;;;;1.00;0.85;;;15.90;99.90;;;;;;4317861;33;20509;-92
2020/12/17 04:50:40;;;;;;;6.80;1.62;;;15.80;99.90;;;;;;4319546;33;20138;-93
2020/12/17 04:53:13;;;;;;;3.47;1.05;;;;;;;;;;4308775;33;20134;-92
2020/12/17 04:55:42;;;;;;;6.50;1.48;;;;;;;;;;4311271;33;20145;-93
2020/12/17 04:58:13;;;;;;;5.70;1.12;;;;;;;;;;4327669;33;20083;-93
2020/12/17 05:00:42;;;;;;;2.37;1.10;;;;;;;;;;4298604;33;20088;-93
2020/12/17 05:03:19;;;;;;;0.43;0.43;;;;;;;;;;4307036;33;20064;-93
2020/12/17 05:05:51;;;;;;;1.67;1.10;;;;;;;;;;4302331;33;20127;-93
2020/12/17 05:08:21;;;;;;;2.95;1.37;;;;;;;;;;4314153;33;20821;-93
2020/12/17 05:10:54;;;;;;;;;;;;;;;;;;4307378;33;20053;-92
2020/12/17 05:13:23;;;;;;;4.12;0.50;;;;;;;;;;4310453;33;19947;-92
2020/12/17 05:15:52;;;;;;;8.68;1.48;;;;;;;;;;4296807;33;20115;-94
2020/12/17 05:18:22;;;;;;;2.67;1.17;;;;;;;;;;4320291;33;20147;-91
2020/12/17 05:20:51;;;;;;;6.40;1.83;;;;;;;;;;4319982;33;20116;-93
2020/12/17 05:23:25;;;;;;;2.65;1.00;;;;;;;;;;4310177;33;20370;-93
2020/12/17 05:25:53;;;;;;;11.77;1.58;;;;;;;;;;4314776;33;20044;-92
2020/12/17 05:28:22;;;;;;;2.37;1.40;;;;;;;;;;4330646;33;20088;-91
2020/12/17 05:30:52;;;;;;;0.70;0.60;;;;;;;;;;4307744;33;20122;-93
2020/12/17 05:33:22;;;;;;;1.90;0.80;;;;;;;;;;4310346;33;20057;-94
2020/12/17 05:35:53;;;;;;;2.33;1.05;;;;;;;;;;4308896;33;20110;-93
2020/12/17 05:38:25;;;;;;;3.47;0.95;;;;;;;;;;4308947;33;20148;-94
2020/12/17 05:40:57;;;;;;;0.75;0.68;;;15.40;99.90;;;;;;4320580;33;20060;-91
2020/12/17 05:43:30;;;;;;;4.35;1.55;;;;;;;;;;4308833;33;20087;-93
2020/12/17 05:45:59;;;;;;;2.47;0.80;;;;;;;;;;4319552;33;20136;-93
2020/12/17 05:48:33;;;;;;;2.67;1.00;;;;;;;;;;4310169;33;20084;-93
2020/12/17 05:51:02;;;;;;;1.35;1.20;;;;;;;;;;4303122;33;20861;-94
2020/12/17 05:53:42;;;;;;;3.87;1.05;;;;;;;;;;4324899;33;20713;-94
2020/12/17 05:56:14;;;;;;;7.90;1.23;;;;;;;;;;4302695;33;20065;-94
2020/12/17 05:58:46;;;;;;;7.60;1.48;;;;;;;;;;4308114;33;20053;-95
2020/12/17 06:01:17;;;;;;;1.65;0.65;;;;;;;;;;4305544;33;20544;-92
2020/12/17 06:03:47;;;;;;;1.23;1.02;;;;;;;;;;4311106;33;20080;-93
2020/12/17 06:06:16;;;;;;;2.15;1.00;;;;;;;;;;4316622;33;20193;-93
2020/12/17 06:08:50;;;;;;;2.70;0.85;;;;;;;;;;4335639;33;20057;-94
2020/12/17 06:11:25;;;;;;;0.85;0.55;;;;;;;;;;4298528;33;20061;-93
2020/12/17 06:13:55;;;;;;;3.65;1.27;;;;;;;;;;4326589;33;20119;-94
2020/12/17 06:16:24;;;;;;;4.00;1.20;;;;;;;;;;4323697;33;20159;-94
2020/12/17 06:18:56;;;;;;;1.02;0.70;;;;;;;;;;4307549;33;20112;-94
2020/12/17 06:21:29;;;;;;;4.72;1.10;;;;;;;;;;4305752;33;20052;-95
2020/12/17 06:24:00;;;;;;;2.87;1.40;;;;;;;;;;4323117;33;20092;-93
2020/12/17 06:26:41;;;;;;;4.72;1.55;;;;;;;;;;4314723;33;20050;-94
2020/12/17 06:29:20;;;;;;;8.90;1.25;;;;;;;;;;4314902;33;20500;-94
2020/12/17 06:31:58;;;;;;;4.45;1.20;;;;;;;;;;4313306;33;20111;-94
2020/12/17 06:34:40;;;;;;;9.15;1.37;;;;;;;;;;4318061;33;20061;-95
2020/12/17 06:37:17;;;;;;;8.57;1.35;;;;;;;;;;4311305;33;20378;-94
2020/12/17 06:39:53;;;;;;;1.57;1.00;;;;;;;;;;4313362;33;20489;-92
2020/12/17 06:42:37;;;;;;;4.40;1.15;;;;;;;;;;4322915;33;20133;-94
2020/12/17 06:45:06;;;;;;;;;;;;;;;;;;4300685;33;20068;-93
2020/12/17 06:47:34;;;;;;;2.35;1.10;;;;;;;;;;4298279;33;20668;-93
2020/12/17 06:50:22;;;;;;;3.65;1.10;;;;;;;;;;4321308;33;20104;-94
2020/12/17 06:53:08;;;;;;;8.23;1.30;;;;;;;;;;4308014;33;20092;-95
2020/12/17 06:55:43;;;;;;;3.50;0.95;;;;;;;;;;4311811;33;20126;-95
2020/12/17 06:58:18;;;;;;;20.40;1.37;;;;;;;;;;4301873;33;20644;-96
2020/12/17 07:00:52;;;;;;;2.00;1.12;;;;;;;;;;4314582;33;20065;-94
2020/12/17 07:03:39;;;;;;;3.58;1.30;;;;;;;;;;4314274;33;20083;-95
2020/12/17 07:06:19;;;;;;;8.50;1.48;;;;;;;;;;4309964;33;20116;-95
2020/12/17 07:09:01;;;;;;;6.68;1.70;;;;;;;;;;4317104;33;20152;-92
2020/12/17 07:11:45;;;;;;;9.57;1.92;;;;;;;;;;4312626;33;20080;-94
2020/12/17 07:14:27;;;;;;;8.60;1.65;;;;;;;;;;4316338;33;20045;-92
2020/12/17 07:17:02;;;;;;;7.07;1.12;;;;;;;;;;4307609;33;20056;-94
2020/12/17 07:19:38;;;;;;;9.38;1.98;;;;;;;;;;4308547;33;20138;-95
2020/12/17 07:22:11;;;;;;;7.65;1.30;;;;;;;;;;4322071;33;20049;-95
2020/12/17 07:24:41;;;;;;;7.10;1.37;;;;;;;;;;4323914;33;20086;-96
2020/12/17 07:27:13;;;;;;;6.22;1.45;;;;;;;;;;4323064;33;20099;-95
2020/12/17 07:29:43;;;;;;;9.68;1.73;;;;;;;;;;4303232;33;20104;-93
2020/12/17 07:32:40;;;;;;;9.85;1.77;;;15.70;99.90;;;;;;4322356;33;20096;-94
2020/12/17 07:35:09;;;;;;;6.65;1.37;;;;;;;;;;4320914;33;20561;-92
2020/12/17 07:37:43;;;;;;;2.65;1.17;;;;;;;;;;4302050;33;20119;-93
2020/12/17 07:40:19;;;;;;;2.97;1.37;;;;;;;;;;4309063;33;20517;-94
2020/12/17 07:42:56;;;;;;;3.28;1.05;;;;;;;;;;4305568;33;20119;-93
2020/12/17 07:45:37;;;;;;;6.00;1.12;;;;;;;;;;4313769;33;20112;-96
2020/12/17 07:48:32;;;;;;;5.28;1.35;;;;;;;;;;4315522;33;20092;-95
2020/12/17 07:51:18;;;;;;;4.50;0.90;;;;;;;;;;4318443;33;20325;-95
2020/12/17 07:53:53;;;;;;;6.07;1.20;;;;;;;;;;4328457;33;20449;-95
2020/12/17 07:56:27;;;;;;;164.37;40.10;;;;;;;;;;4301983;33;20280;-96
2020/12/17 07:58:55;;;;;;;5.87;1.40;;;;;;;;;;4314543;33;20100;-94
2020/12/17 08:01:26;;;;;;;6.00;1.00;;;;;;;;;;4318990;33;20111;-93
2020/12/17 08:03:55;;;;;;;5.18;1.20;;;;;;;;;;4309733;33;20079;-91
2020/12/17 08:06:24;;;;;;;7.93;1.10;;;;;;;;;;4316477;33;20053;-93
2020/12/17 08:09:00;;;;;;;4.62;1.35;;;;;;;;;;4309520;33;20178;-92
2020/12/17 08:11:39;;;;;;;8.95;3.25;;;;;;;;;;4318183;33;20107;-95
2020/12/17 08:14:09;;;;;;;9.65;8.63;;;;;;;;;;4320126;33;20072;-93
2020/12/17 08:16:40;;;;;;;5.22;1.67;;;;;;;;;;4301316;33;20072;-91
2020/12/17 08:19:09;;;;;;;7.15;1.83;;;;;;;;;;4310340;33;20076;-93
2020/12/17 08:21:39;;;;;;;4.32;3.47;;;;;;;;;;4309313;33;20052;-94
2020/12/17 08:24:10;;;;;;;4.87;3.17;;;;;;;;;;4324175;33;20107;-95
2020/12/17 08:26:43;;;;;;;5.47;3.72;;;;;;;;;;4322627;33;20064;-95
2020/12/17 08:29:14;;;;;;;7.00;3.80;;;;;;;;;;4306939;33;20064;-95
2020/12/17 08:31:43;;;;;;;5.28;3.10;;;;;;;;;;4324960;33;20102;-94
2020/12/17 08:34:12;;;;;;;4.07;2.70;;;;;;;;;;4300844;33;20142;-95
2020/12/17 08:36:43;;;;;;;4.75;2.42;;;;;;;;;;4313043;33;20120;-94
2020/12/17 08:39:13;;;;;;;4.50;2.28;;;;;;;;;;4324879;33;20166;-96
2020/12/17 08:41:50;;;;;;;4.78;3.47;;;;;;;;;;4314289;33;20064;-95
2020/12/17 08:44:21;;;;;;;3.37;2.60;;;;;;;;;;4321767;33;20102;-95
2020/12/17 08:46:56;;;;;;;5.12;2.95;;;;;;;;;;4321412;33;20108;-96
2020/12/17 08:49:26;;;;;;;3.65;2.75;;;;;;;;;;4320480;33;20092;-93
2020/12/17 08:51:55;;;;;;;2.97;2.72;;;;;;;;;;4311060;33;20096;-95
2020/12/17 08:54:30;;;;;;;5.62;2.60;;;;;;;;;;4310348;33;20066;-94
2020/12/17 08:57:02;;;;;;;6.60;3.00;;;;;;;;;;4322319;33;20135;-96
2020/12/17 08:59:32;;;;;;;4.00;2.60;;;;;;;;;;4324093;33;20167;-93
2020/12/17 09:02:01;;;;;;;3.12;2.50;;;;;;;;;;4309586;33;20056;-93
2020/12/17 09:04:32;;;;;;;3.33;2.55;;;;;;;;;;4311927;33;20092;-96
2020/12/17 09:07:02;;;;;;;0.95;0.88;;;;;;;;;;4310263;33;20807;-96
2020/12/17 09:09:38;;;;;;;86.93;9.27;;;;;;;;;;4325683;33;20120;-92
2020/12/17 09:12:11;;;;;;;6.28;1.30;;;;;;;;;;4328609;33;20037;-94
2020/12/17 09:14:44;;;;;;;1.05;1.02;;;;;;;;;;4328806;33;20055;-96
2020/12/17 09:17:17;;;;;;;1.20;1.05;;;;;;;;;;4318167;33;20124;-95
2020/12/17 09:19:48;;;;;;;3.75;1.48;;;;;;;;;;4324237;33;20049;-93
2020/12/17 09:22:20;;;;;;;3.20;1.12;;;;;;;;;;4321203;33;20060;-95
2020/12/17 09:24:50;;;;;;;3.17;1.08;;;;;;;;;;4316002;33;20056;-94
2020/12/17 09:27:29;;;;;;;7.93;1.80;;;;;;;;;;4309093;33;20073;-96
2020/12/17 09:30:09;;;;;;;6.78;1.23;;;;;;;;;;4308441;33;20103;-94
2020/12/17 09:32:39;;;;;;;6.85;1.25;;;;;;;;;;4320710;33;20657;-96
2020/12/17 09:35:12;;;;;;;7.45;1.90;;;;;;;;;;4310678;33;20060;-94
2020/12/17 09:37:42;;;;;;;5.97;1.40;;;;;;;;;;4317923;33;20065;-92
2020/12/17 09:40:11;;;;;;;3.50;1.17;;;;;;;;;;4318974;33;20181;-93
2020/12/17 09:42:46;;;;;;;4.22;2.08;;;;;;;;;;4313316;33;20083;-95
2020/12/17 09:45:19;;;;;;;151.00;18.90;;;;;;;;;;4312251;33;20069;-94
2020/12/17 09:47:51;;;;;;;7.18;2.15;;;;;;;;;;4305609;33;20276;-93
2020/12/17 09:50:20;;;;;;;2.70;1.12;;;;;;;;;;4321902;33;20066;-93
2020/12/17 09:52:48;;;;;;;5.70;1.50;;;;;;;;;;4322730;33;20116;-94
2020/12/17 09:55:16;;;;;;;5.10;1.30;;;;;;;;;;4311836;33;20120;-92
2020/12/17 09:57:47;;;;;;;0.80;0.60;;;;;;;;;;4313030;33;20103;-92
2020/12/17 10:00:15;;;;;;;4.72;1.33;;;;;;;;;;4309538;33;20108;-92
2020/12/17 10:02:44;;;;;;;1.40;0.80;;;;;;;;;;4313148;33;20148;-91
2020/12/17 10:05:12;;;;;;;1.92;0.77;;;;;;;;;;4320840;33;20105;-93
2020/12/17 10:07:47;;;;;;;3.45;1.08;;;;;;;;;;4304424;33;20075;-91
2020/12/17 10:10:16;;;;;;;0.62;0.62;;;;;;;;;;4315283;33;20112;-93
2020/12/17 10:12:44;;;;;;;1.65;1.15;;;;;;;;;;4310730;33;20092;-92
2020/12/17 10:15:12;;;;;;;1.75;1.20;;;;;;;;;;4322352;33;20558;-93
2020/12/17 10:17:41;;;;;;;1.98;1.87;;;;;;;;;;4311232;33;20084;-96
2020/12/17 10:20:17;;;;;;;5.65;1.60;;;;;;;;;;4320521;33;20113;-96
2020/12/17 10:22:48;;;;;;;2.42;1.85;;;;;;;;;;4307027;33;20651;-93
2020/12/17 10:25:17;;;;;;;0.95;0.95;;;;;;;;;;4311087;33;20148;-93
2020/12/17 10:27:46;;;;;;;4.12;1.87;;;;;;;;;;4310831;33;20052;-91
2020/12/17 10:30:17;;;;;;;1.52;1.48;;;;;;;;;;4307872;33;20103;-93
2020/12/17 10:32:45;;;;;;;3.25;1.70;;;;;;;;;;4309355;33;20040;-92
2020/12/17 10:35:13;;;;;;;1.00;0.60;;;;;;;;;;4310891;33;20053;-93
2020/12/17 10:37:48;;;;;;;1.35;1.25;;;;;;;;;;4312057;33;20052;-93
2020/12/17 10:40:19;;;;;;;1.23;1.23;;;;;;;;;;4310148;33;20097;-93
2020/12/17 10:43:05;;;;;;;2.33;1.37;;;;;;;;;;4303960;33;20439;-92
2020/12/17 10:45:33;;;;;;;1.55;1.45;;;;;;;;;;4311082;33;20061;-94
2020/12/17 10:48:02;;;;;;;1.12;1.02;;;;;;;;;;4309757;33;20545;-91
2020/12/17 10:50:31;;;;;;;1.02;1.02;;;;;;;;;;4308603;33;20057;-93
2020/12/17 10:53:02;;;;;;;4.30;1.23;;;;;;;;;;4305059;33;20122;-93
2020/12/17 10:55:30;;;;;;;1.70;1.27;;;;;;;;;;4311455;33;20096;-93
2020/12/17 10:58:01;;;;;;;2.60;1.17;;;;;;;;;;4309543;33;20040;-94
2020/12/17 11:00:29;;;;;;;0.80;0.80;;;;;;;;;;4321060;33;20056;-91
2020/12/17 11:02:58;;;;;;;1.60;1.20;;;;;;;;;;4312005;33;20080;-92
2020/12/17 11:05:26;;;;;;;4.15;1.20;;;;;;;;;;4321122;33;20079;-92
2020/12/17 11:07:58;;;;;;;0.82;0.82;;;;;;;;;;4318506;33;20435;-92
2020/12/17 11:10:26;;;;;;;1.55;1.08;;;;;;;;;;4319391;33;20064;-91
2020/12/17 11:13:02;;;;;;;2.12;1.15;;;;;;;;;;4317294;33;20060;-92
2020/12/17 11:15:35;;;;;;;5.10;1.07;;;;;;;;;;4309672;33;20085;-92
2020/12/17 11:18:03;;;;;;;2.58;0.85;;;;;;;;;;4311801;33;20092;-92
2020/12/17 11:20:33;;;;;;;1.15;1.00;;;;;;;;;;4309320;33;20736;-92
2020/12/17 11:23:04;;;;;;;1.12;1.02;;;;;;;;;;4321654;33;20422;-93
2020/12/17 11:25:36;;;;;;;1.65;1.37;;;;;;;;;;4309907;33;20060;-94
2020/12/17 11:28:05;;;;;;;1.83;0.82;;;;;;;;;;4311184;33;20099;-93
2020/12/17 11:30:34;;;;;;;0.93;0.60;;;;;;;;;;4320424;33;20115;-93
2020/12/17 11:33:06;;;;;;;2.03;1.35;;;;;;;;;;4315785;33;20072;-93
2020/12/17 11:35:34;;;;;;;0.65;0.65;;;;;;;;;;4307692;33;20092;-93
2020/12/17 11:38:02;;;;;;;1.40;1.02;;;;;;;;;;4309071;33;20108;-91
2020/12/17 11:40:31;;;;;;;1.10;1.00;;;;;;;;;;4319547;33;20119;-93
2020/12/17 11:43:02;;;;;;;2.75;0.77;;;;;;;;;;4311068;33;20048;-92
2020/12/17 11:45:30;;;;;;;6.25;1.50;;;;;;;;;;4325029;33;20064;-94
2020/12/17 11:47:59;;;;;;;3.65;1.77;;;;;;;;;;4316478;33;20136;-92
2020/12/17 11:50:30;;;;;;;5.10;1.67;;;;;;;;;;4306755;33;20435;-92
2020/12/17 11:52:59;;;;;;;3.05;0.80;;;;;;;;;;4315688;33;20108;-92
2020/12/17 11:55:29;;;;;;;4.40;1.00;;;;;;;;;;4307197;33;20062;-92
2020/12/17 11:58:00;;;;;;;2.47;0.70;;;;;;;;;;4307162;33;20446;-92
2020/12/17 12:00:34;;;;;;;3.87;1.00;;;;;;;;;;4318913;33;20077;-93
2020/12/17 12:03:02;;;;;;;3.42;1.73;;;;;;;;;;4322201;33;20092;-92
2020/12/17 12:05:32;;;;;;;1.75;0.95;;;;;;;;;;4315888;33;20102;-93
2020/12/17 12:08:00;;;;;;;4.50;2.22;;;;;;;;;;4317858;33;20123;-93
2020/12/17 12:10:30;;;;;;;1.10;0.68;;;;;;;;;;4317510;33;20081;-92
2020/12/17 12:12:59;;;;;;;0.82;0.82;;;;;;;;;;4315039;33;20069;-91
2020/12/17 12:15:29;;;;;;;1.98;1.80;;;;;;;;;;4318095;33;20114;-90
2020/12/17 12:18:05;;;;;;;2.35;0.85;;;;;;;;;;4311080;33;20851;-96
2020/12/17 12:20:40;;;;;;;2.33;1.73;;;;;;;;;;4320313;33;20064;-93
2020/12/17 12:23:09;;;;;;;0.82;0.60;;;;;;;;;;4321203;33;20163;-94
2020/12/17 12:25:39;;;;;;;2.45;0.70;;;;;;;;;;4310371;33;20163;-94
2020/12/17 12:28:08;;;;;;;5.95;1.60;;;;;;;;;;4314749;33;20548;-93
2020/12/17 12:30:39;;;;;;;1.98;1.37;;;;;;;;;;4308433;33;20068;-92
2020/12/17 12:33:10;;;;;;;1.75;1.27;;;;;;;;;;4314143;33;20084;-94
2020/12/17 12:35:45;;;;;;;3.30;1.45;;;;;;;;;;4313887;33;20045;-96
2020/12/17 12:38:21;;;;;;;2.90;0.90;;;;;;;;;;4321539;33;20079;-94
2020/12/17 12:40:50;;;;;;;1.62;0.90;;;;;;;;;;4309637;33;20455;-94
2020/12/17 12:43:23;;;;;;;0.73;0.62;;;;;;;;;;4316029;33;20071;-95
2020/12/17 12:46:07;;;;;;;1.58;0.60;;;;;;;;;;4310941;33;20110;-95
2020/12/17 12:48:36;;;;;;;5.40;0.90;;;;;;;;;;4314899;33;20071;-93
2020/12/17 12:51:04;;;;;;;2.17;0.70;;;;;;;;;;4312630;33;20075;-94
2020/12/17 12:53:33;;;;;;;19.33;1.30;;;;;;;;;;4311835;33;20104;-94
2020/12/17 12:56:01;;;;;;;2.53;1.00;;;;;;;;;;4325345;33;20096;-94
2020/12/17 12:58:29;;;;;;;6.60;0.68;;;;;;;;;;4324050;33;20056;-95
2020/12/17 13:00:58;;;;;;;1.45;0.85;;;;;;;;;;4316391;33;20064;-89
2020/12/17 13:03:27;;;;;;;1.05;0.68;;;;;;;;;;4323699;33;20053;-96
2020/12/17 13:05:56;;;;;;;2.28;0.70;;;;;;;;;;4310134;33;20651;-90
2020/12/17 13:08:24;;;;;;;4.80;1.02;;;;;;;;;;4311377;33;20131;-93
2020/12/17 13:10:52;;;;;;;1.42;0.75;;;;;;;;;;4312809;33;20068;-94
2020/12/17 13:13:20;;;;;;;6.43;1.00;;;;;;;;;;4323245;33;20060;-96
2020/12/17 13:15:49;;;;;;;3.22;0.80;;;;;;;;;;4313937;33;20104;-93
2020/12/17 13:18:19;;;;;;;3.80;1.55;;;;;;;;;;4313388;33;20552;-94
2020/12/17 13:20:51;;;;;;;0.55;0.50;;;;;;;;;;4312063;33;20462;-94
2020/12/17 13:23:19;;;;;;;0.85;0.70;;;;;;;;;;4312492;33;20061;-95
2020/12/17 13:25:49;;;;;;;1.45;0.65;;;;;;;;;;4325605;33;20064;-95
2020/12/17 13:28:22;;;;;;;2.05;0.90;;;;;;;;;;4315125;33;20313;-95
2020/12/17 13:31:11;;;;;;;0.50;0.50;;;;;;;;;;4316086;33;20514;-96
2020/12/17 13:33:40;;;;;;;1.37;0.90;;;;;;;;;;4325557;33;20067;-96
2020/12/17 13:36:09;;;;;;;0.40;0.40;;;;;;;;;;4314598;33;20143;-94
2020/12/17 13:38:39;;;;;;;2.30;0.88;;;;;;;;;;4302265;33;20053;-95
2020/12/17 13:41:11;;;;;;;3.40;1.20;;;;;;;;;;4314223;33;20060;-94
2020/12/17 13:43:44;;;;;;;7.32;0.90;;;;;;;;;;4319123;33;20108;-92
2020/12/17 13:46:13;;;;;;;0.95;0.62;;;;;;;;;;4333304;33;20135;-93
2020/12/17 13:48:41;;;;;;;0.62;0.55;;;;;;;;;;4311481;33;20116;-93
2020/12/17 13:51:16;;;;;;;3.17;0.70;;;;;;;;;;4319596;33;20065;-95
2020/12/17 13:53:54;;;;;;;1.02;0.85;;;;;;;;;;4309895;33;20099;-94
2020/12/17 13:56:26;;;;;;;0.43;0.43;;;;;;;;;;4326152;33;20106;-93
2020/12/17 13:58:57;;;;;;;3.95;0.80;;;;;;;;;;4336187;33;20083;-95
2020/12/17 14:01:32;;;;;;;0.90;0.68;;;;;;;;;;4325354;33;20096;-92
2020/12/17 14:04:01;;;;;;;1.70;0.90;;;;;;;;;;4342026;33;20049;-94
2020/12/17 14:06:40;;;;;;;0.77;0.65;;;;;;;;;;4337539;33;20111;-95
2020/12/17 14:09:10;;;;;;;6.68;1.17;;;;;;;;;;4316331;33;20071;-93
2020/12/17 14:11:41;;;;;;;4.53;1.17;;;;;;;;;;4328262;33;20099;-93
2020/12/17 14:14:09;;;;;;;2.67;0.75;;;;;;;;;;4320137;33;20109;-94
2020/12/17 14:16:42;;;;;;;2.72;0.62;;;;;;;;;;4311122;33;20102;-92
2020/12/17 14:19:11;;;;;;;3.08;0.52;;;;;;;;;;4307520;33;20474;-94
2020/12/17 14:21:41;;;;;;;5.68;0.85;;;;;;;;;;4310412;33;20049;-94
2020/12/17 14:24:12;;;;;;;2.87;0.60;;;;;;;;;;4311030;33;20470;-94
2020/12/17 14:26:41;;;;;;;0.47;0.43;;;;;;;;;;4309579;33;20127;-91
2020/12/17 14:29:11;;;;;;;3.42;0.93;;;;;;;;;;4318900;33;20131;-94
2020/12/17 14:31:50;;;;;;;3.10;0.70;;;;;;;;;;4323639;33;20053;-95
2020/12/17 14:34:26;;;;;;;1.73;0.88;;;;;;;;;;4297821;33;20072;-94
2020/12/17 14:37:04;;;;;;;1.50;0.60;;;;;;;;;;4311457;33;20123;-94
2020/12/17 14:39:37;;;;;;;1.10;0.73;;;;;;;;;;4300357;33;20052;-93
2020/12/17 14:42:10;;;;;;;3.47;0.98;;;;;;;;;;4321640;33;20067;-92
2020/12/17 14:44:38;;;;;;;2.87;0.90;;;;;;;;;;4310819;33;20080;-96
2020/12/17 14:47:30;;;;;;;2.70;0.93;;;;;;;;;;4303828;33;20091;-92
2020/12/17 14:50:01;;;;;;;4.37;0.85;;;;;;;;;;4320887;33;20120;-92
2020/12/17 14:52:30;;;;;;;4.90;1.20;;;;;;;;;;4309214;33;20744;-94
2020/12/17 14:54:58;;;;;;;1.48;0.82;;;;;;;;;;4310533;33;20088;-93
2020/12/17 14:57:26;;;;;;;3.90;1.17;;;;;;;;;;4309658;33;20080;-92